createdAt,value
2022-11-15T00:00:01.285Z,37.42
2022-11-15T00:05:02.804Z,36.53
2022-11-15T00:10:04.846Z,36.75
2022-11-15T00:15:06.912Z,37.20
2022-11-15T00:20:08.962Z,36.03
2022-11-15T00:25:10.368Z,36.85
2022-11-15T00:30:12.389Z,35.72
2022-11-15T00:35:13.874Z,36.75
2022-11-15T00:40:16.103Z,35.47
2022-11-15T00:45:17.654Z,35.38
2022-11-15T00:50:19.712Z,33.90
2022-11-15T00:55:21.247Z,34.42
2022-11-15T01:00:22.868Z,34.83
2022-11-15T01:05:24.339Z,34.08
2022-11-15T01:10:26.886Z,35.45
2022-11-15T01:15:28.355Z,34.10
2022-11-15T01:20:29.853Z,34.65
2022-11-15T01:25:31.251Z,31.98
2022-11-15T01:30:32.911Z,32.67
2022-11-15T01:35:34.381Z,33.35
2022-11-15T01:40:35.875Z,34.38
2022-11-15T01:45:37.443Z,35.72
2022-11-15T01:50:39.033Z,33.88
2022-11-15T01:55:40.535Z,32.15
2022-11-15T02:00:42.264Z,30.90
2022-11-15T02:05:44.876Z,30.85
2022-11-15T02:10:49.602Z,31.25
2022-11-15T02:16:30.543Z,31.90
2022-11-15T02:22:00.491Z,30.13
2022-11-15T02:27:23.613Z,31.88
2022-11-15T02:32:42.115Z,30.20
2022-11-15T02:37:53.325Z,29.33
2022-11-15T02:43:16.994Z,29.40
2022-11-15T02:48:19.424Z,31.60
2022-11-15T02:53:26.338Z,32.92
2022-11-15T02:58:49.040Z,32.25
2022-11-15T03:03:56.341Z,33.35
2022-11-15T03:09:11.029Z,32.05
2022-11-15T03:14:35.305Z,32.95
2022-11-15T03:19:45.735Z,31.20
2022-11-15T03:24:53.103Z,29.67
2022-11-15T03:30:00.576Z,30.33
2022-11-15T03:35:12.760Z,29.95
2022-11-15T03:40:15.304Z,29.15
2022-11-15T03:45:23.397Z,29.90
2022-11-15T03:50:25.976Z,29.05
2022-11-15T03:55:27.478Z,29.60
2022-11-15T04:00:30.009Z,29.65
2022-11-15T04:05:31.449Z,29.83
2022-11-15T04:10:32.956Z,30.02
2022-11-15T04:15:34.784Z,28.48
2022-11-15T04:20:54.763Z,29.50
2022-11-15T04:25:59.156Z,29.67
2022-11-15T04:31:00.652Z,29.63
2022-11-15T04:36:20.774Z,28.80
2022-11-15T04:41:23.249Z,30.70
2022-11-15T04:46:25.332Z,28.77
2022-11-15T04:51:26.819Z,28.65
2022-11-15T04:56:28.300Z,28.95
2022-11-15T05:01:29.907Z,28.67
2022-11-15T05:06:31.768Z,28.45
2022-11-15T05:11:33.254Z,27.90
2022-11-15T05:16:34.867Z,28.42
2022-11-15T05:21:37.056Z,27.70
2022-11-15T05:26:38.498Z,28.65
2022-11-15T05:31:42.262Z,28.88
2022-11-15T05:36:46.687Z,28.13
2022-11-15T05:41:51.337Z,27.48
2022-11-15T05:46:55.320Z,27.50
2022-11-15T05:51:58.544Z,27.83
2022-11-15T05:57:00.906Z,27.25
2022-11-15T06:02:02.428Z,28.00
2022-11-15T06:07:03.956Z,28.42
2022-11-15T06:12:05.635Z,27.35
2022-11-15T06:17:11.200Z,27.45
2022-11-15T06:22:12.956Z,28.13
2022-11-15T06:27:14.390Z,27.95
2022-11-15T06:32:15.819Z,29.30
2022-11-15T06:37:17.249Z,27.58
2022-11-15T06:42:18.685Z,28.63
2022-11-15T06:47:20.143Z,29.40
2022-11-15T06:52:22.675Z,31.80
2022-11-15T06:57:24.070Z,30.08
2022-11-15T07:02:25.522Z,29.77
2022-11-15T07:07:27.178Z,30.02
2022-11-15T07:12:28.684Z,28.38
2022-11-15T07:17:30.117Z,29.55
2022-11-15T07:22:31.538Z,29.23
2022-11-15T07:27:33.369Z,29.58
2022-11-15T07:32:35.538Z,31.23
2022-11-15T07:37:36.955Z,31.83
2022-11-15T07:42:53.594Z,30.25
2022-11-15T07:47:56.847Z,28.55
2022-11-15T07:53:00.047Z,28.42
2022-11-15T07:58:03.071Z,31.73
2022-11-15T08:03:12.915Z,30.55
2022-11-15T08:08:14.369Z,33.35
2022-11-15T08:13:15.994Z,32.33
2022-11-15T08:18:17.852Z,35.80
2022-11-15T08:23:19.422Z,33.72
2022-11-15T08:28:20.815Z,36.08
2022-11-15T08:33:22.288Z,35.28
2022-11-15T08:38:24.122Z,33.97
2022-11-15T08:43:25.531Z,37.03
2022-11-15T08:48:27.154Z,38.42
2022-11-15T08:53:28.606Z,37.17
2022-11-15T08:58:30.260Z,37.50
2022-11-15T09:03:32.019Z,36.65
2022-11-15T09:08:46.955Z,39.03
2022-11-15T09:13:49.236Z,36.75
2022-11-15T09:18:50.903Z,36.88
2022-11-15T09:23:53.118Z,35.22
2022-11-15T09:28:54.569Z,34.45
2022-11-15T09:33:56.303Z,33.78
2022-11-15T09:38:59.239Z,34.42
2022-11-15T09:44:39.768Z,33.75
2022-11-15T09:49:41.214Z,33.67
2022-11-15T09:54:56.332Z,31.63
2022-11-15T10:00:46.015Z,30.42
2022-11-15T10:05:32.690Z,32.55
2022-11-15T10:10:39.486Z,29.15
2022-11-15T10:15:46.264Z,30.13
2022-11-15T10:21:00.897Z,28.05
2022-11-15T10:26:07.037Z,26.67
2022-11-15T10:31:26.523Z,25.02
2022-11-15T10:36:29.527Z,26.48
2022-11-15T10:41:38.186Z,23.48
2022-11-15T10:46:47.213Z,23.40
2022-11-15T10:51:51.985Z,21.98
2022-11-15T10:56:56.886Z,19.67
2022-11-15T11:01:58.769Z,20.70
2022-11-15T11:07:01.053Z,21.02
2022-11-15T11:12:04.286Z,21.65
2022-11-15T11:17:23.639Z,20.50
2022-11-15T11:22:39.394Z,14.98
2022-11-15T11:27:52.787Z,17.23
2022-11-15T11:33:02.502Z,15.32
2022-11-15T11:38:03.852Z,14.27
2022-11-15T11:43:23.729Z,13.13
2022-11-15T11:48:46.680Z,13.15
2022-11-15T11:54:02.265Z,14.95
2022-11-15T11:59:12.027Z,13.27
2022-11-15T12:04:28.023Z,14.25
2022-11-15T12:09:39.059Z,12.43
2022-11-15T12:14:52.877Z,11.43
2022-11-15T12:19:59.552Z,11.30
2022-11-15T12:25:06.072Z,12.25
2022-11-15T12:30:15.790Z,24.20
2022-11-15T12:35:36.327Z,16.10
2022-11-15T12:40:58.999Z,15.48
2022-11-15T12:46:05.443Z,15.00
2022-11-15T12:51:06.933Z,12.85
2022-11-15T12:56:15.876Z,12.20
2022-11-15T13:01:36.161Z,12.65
2022-11-15T13:06:41.464Z,13.02
2022-11-15T13:11:49.149Z,13.38
2022-11-15T13:16:59.882Z,13.60
2022-11-15T13:22:28.035Z,15.10
2022-11-15T13:27:29.956Z,15.07
2022-11-15T13:32:31.788Z,16.10
2022-11-15T13:37:34.437Z,15.70
2022-11-15T13:42:35.872Z,16.38
2022-11-15T13:47:37.296Z,17.48
2022-11-15T13:52:41.572Z,17.20
2022-11-15T13:57:46.708Z,15.32
2022-11-15T14:02:48.226Z,16.90
2022-11-15T14:08:14.329Z,17.10
2022-11-15T14:13:30.814Z,17.95
2022-11-15T14:18:43.474Z,16.85
2022-11-15T14:23:45.549Z,18.95
2022-11-15T14:28:47.000Z,20.38
2022-11-15T14:33:48.858Z,19.48
2022-11-15T14:38:50.386Z,19.02
2022-11-15T14:43:53.070Z,20.70
2022-11-15T14:48:54.652Z,17.60
2022-11-15T14:53:56.380Z,16.05
2022-11-15T14:58:59.488Z,16.63
2022-11-15T15:04:00.947Z,17.52
2022-11-15T15:09:02.776Z,18.90
2022-11-15T15:14:04.242Z,19.30
2022-11-15T15:19:05.681Z,19.00
2022-11-15T15:24:14.416Z,19.13
2022-11-15T15:29:16.360Z,19.65
2022-11-15T15:34:17.856Z,19.85
2022-11-15T15:39:19.264Z,21.58
2022-11-15T15:44:20.730Z,21.63
2022-11-15T15:49:22.214Z,19.90
2022-11-15T15:54:23.624Z,19.00
2022-11-15T15:59:25.172Z,18.35
2022-11-15T16:04:27.036Z,19.25
2022-11-15T16:09:46.984Z,38.65
2022-11-15T16:14:48.435Z,40.58
2022-11-15T16:19:49.861Z,51.33
2022-11-15T16:24:51.296Z,44.50
2022-11-15T16:29:52.705Z,39.40
2022-11-15T16:34:55.008Z,52.78
2022-11-15T16:40:00.840Z,29.55
2022-11-15T16:45:02.608Z,30.63
2022-11-15T16:50:04.321Z,28.45
2022-11-15T16:55:06.410Z,25.45
2022-11-15T17:00:11.679Z,30.30
2022-11-15T17:05:19.750Z,29.80
2022-11-15T17:10:23.537Z,30.20
2022-11-15T17:15:25.423Z,29.98
2022-11-15T17:20:26.968Z,30.83
2022-11-15T17:25:28.396Z,29.50
2022-11-15T17:30:29.814Z,26.80
2022-11-15T17:35:31.279Z,27.35
2022-11-15T17:40:32.765Z,28.38
2022-11-15T17:45:34.665Z,30.40
2022-11-15T17:50:37.228Z,27.77
2022-11-15T17:55:38.645Z,25.23
2022-11-15T18:00:40.285Z,26.25
2022-11-15T18:05:43.813Z,27.40
2022-11-15T18:10:45.246Z,27.10
2022-11-15T18:15:55.021Z,27.00
2022-11-15T18:21:07.296Z,27.55
2022-11-15T18:26:11.911Z,28.33
2022-11-15T18:31:21.745Z,28.70
2022-11-15T18:36:26.282Z,29.05
2022-11-15T18:41:28.901Z,28.83
2022-11-15T18:46:32.310Z,30.70
2022-11-15T18:51:35.400Z,32.05
2022-11-15T18:56:37.673Z,34.42
2022-11-15T19:01:40.874Z,37.80
2022-11-15T19:06:43.940Z,41.70
2022-11-15T19:11:47.127Z,43.75
2022-11-15T19:16:55.570Z,46.45
2022-11-15T19:21:59.585Z,43.27
2022-11-15T19:27:01.067Z,43.42
2022-11-15T19:32:03.933Z,42.05
2022-11-15T19:37:05.404Z,43.95
2022-11-15T19:42:06.853Z,48.78
2022-11-15T19:47:09.353Z,47.05
2022-11-15T19:52:10.824Z,50.70
2022-11-15T19:57:12.232Z,52.40
2022-11-15T20:02:13.689Z,52.05
2022-11-15T20:07:15.133Z,57.05
2022-11-15T20:12:16.668Z,55.05
2022-11-15T20:17:18.177Z,53.70
2022-11-15T20:22:19.572Z,52.15
2022-11-15T20:27:21.008Z,50.17
2022-11-15T20:32:22.536Z,51.97
2022-11-15T20:37:24.087Z,49.88
2022-11-15T20:42:25.489Z,48.80
2022-11-15T20:47:30.448Z,49.13
2022-11-15T20:52:31.892Z,48.20
2022-11-15T20:57:33.282Z,49.28
2022-11-15T21:02:34.781Z,46.72
2022-11-15T21:07:36.327Z,48.28
2022-11-15T21:12:37.888Z,47.10
2022-11-15T21:17:39.358Z,46.20
2022-11-15T21:22:40.984Z,47.33
2022-11-15T21:27:42.409Z,46.30
2022-11-15T21:32:44.989Z,45.35
2022-11-15T21:37:47.814Z,45.60
2022-11-15T21:42:51.136Z,45.95
2022-11-15T21:47:52.535Z,46.15
2022-11-15T21:52:53.956Z,57.63
2022-11-15T21:57:55.409Z,83.03
2022-11-15T22:02:56.833Z,46.95
2022-11-15T22:07:58.439Z,51.63
2022-11-15T22:13:00.086Z,67.65
2022-11-15T22:18:01.873Z,57.90
2022-11-15T22:23:04.555Z,70.38
2022-11-15T22:28:06.232Z,60.10
2022-11-15T22:33:08.015Z,53.55
2022-11-15T22:38:10.474Z,51.00
2022-11-15T22:43:13.606Z,61.72
2022-11-15T22:48:15.924Z,56.53
2022-11-15T22:53:18.936Z,56.13
2022-11-15T22:58:22.222Z,54.90
2022-11-15T23:03:25.206Z,57.10
2022-11-15T23:08:26.956Z,54.50
2022-11-15T23:13:30.793Z,54.70
2022-11-15T23:18:37.783Z,53.55
2022-11-15T23:23:39.498Z,53.78
2022-11-15T23:28:41.161Z,54.20
2022-11-15T23:33:58.061Z,53.40
2022-11-15T23:38:59.789Z,55.60
2022-11-15T23:44:01.754Z,54.72
2022-11-15T23:49:03.954Z,53.72
2022-11-15T23:54:06.289Z,57.08
2022-11-15T23:59:08.652Z,56.22
